sensor_id;sensor_type;location;lat;lon;timestamp;P1;durP1;ratioP1;P2;durP2;ratioP2
59585;SDS011;45408;52.686;7.310;2023-02-11T00:00:59;63.67;;;31.00;;
59585;SDS011;45408;52.686;7.310;2023-02-11T00:03:24;53.75;;;26.35;;
59585;SDS011;45408;52.686;7.310;2023-02-11T00:05:59;60.72;;;27.45;;
59585;SDS011;45408;52.686;7.310;2023-02-11T00:08:24;50.67;;;21.55;;
59585;SDS011;45408;52.686;7.310;2023-02-11T00:10:53;44.80;;;20.70;;
59585;SDS011;45408;52.686;7.310;2023-02-11T00:13:19;51.25;;;23.25;;
59585;SDS011;45408;52.686;7.310;2023-02-11T00:15:44;52.20;;;23.90;;
59585;SDS011;45408;52.686;7.310;2023-02-11T00:18:09;56.30;;;25.63;;
59585;SDS011;45408;52.686;7.310;2023-02-11T00:20:34;59.20;;;26.10;;
59585;SDS011;45408;52.686;7.310;2023-02-11T00:23:02;59.08;;;26.35;;
59585;SDS011;45408;52.686;7.310;2023-02-11T00:25:27;41.13;;;19.73;;
59585;SDS011;45408;52.686;7.310;2023-02-11T00:27:52;54.87;;;27.40;;
59585;SDS011;45408;52.686;7.310;2023-02-11T00:30:17;44.57;;;19.83;;
59585;SDS011;45408;52.686;7.310;2023-02-11T00:32:43;54.70;;;24.37;;
59585;SDS011;45408;52.686;7.310;2023-02-11T00:35:08;51.90;;;21.05;;
59585;SDS011;45408;52.686;7.310;2023-02-11T00:37:33;50.07;;;24.13;;
59585;SDS011;45408;52.686;7.310;2023-02-11T00:40:00;48.15;;;23.27;;
59585;SDS011;45408;52.686;7.310;2023-02-11T00:42:25;41.78;;;19.60;;
59585;SDS011;45408;52.686;7.310;2023-02-11T00:44:50;41.03;;;20.40;;
59585;SDS011;45408;52.686;7.310;2023-02-11T00:47:16;51.10;;;23.63;;
59585;SDS011;45408;52.686;7.310;2023-02-11T00:49:41;48.93;;;20.90;;
59585;SDS011;45408;52.686;7.310;2023-02-11T00:52:06;45.53;;;20.10;;
59585;SDS011;45408;52.686;7.310;2023-02-11T00:54:31;46.67;;;21.65;;
59585;SDS011;45408;52.686;7.310;2023-02-11T00:56:56;42.80;;;19.03;;
59585;SDS011;45408;52.686;7.310;2023-02-11T00:59:22;46.83;;;21.93;;
59585;SDS011;45408;52.686;7.310;2023-02-11T01:01:47;44.77;;;17.87;;
59585;SDS011;45408;52.686;7.310;2023-02-11T01:04:12;49.95;;;21.75;;
59585;SDS011;45408;52.686;7.310;2023-02-11T01:06:37;33.87;;;15.00;;
59585;SDS011;45408;52.686;7.310;2023-02-11T01:09:02;46.80;;;17.80;;
59585;SDS011;45408;52.686;7.310;2023-02-11T01:11:27;44.87;;;16.23;;
59585;SDS011;45408;52.686;7.310;2023-02-11T01:13:53;33.33;;;16.73;;
59585;SDS011;45408;52.686;7.310;2023-02-11T01:16:18;36.53;;;18.63;;
59585;SDS011;45408;52.686;7.310;2023-02-11T01:18:44;49.10;;;16.60;;
59585;SDS011;45408;52.686;7.310;2023-02-11T01:21:09;42.00;;;18.48;;
59585;SDS011;45408;52.686;7.310;2023-02-11T01:23:34;43.83;;;18.27;;
59585;SDS011;45408;52.686;7.310;2023-02-11T01:25:59;41.00;;;17.87;;
59585;SDS011;45408;52.686;7.310;2023-02-11T01:28:26;45.20;;;17.83;;
59585;SDS011;45408;52.686;7.310;2023-02-11T01:30:52;46.80;;;20.63;;
59585;SDS011;45408;52.686;7.310;2023-02-11T01:33:17;41.17;;;18.15;;
59585;SDS011;45408;52.686;7.310;2023-02-11T01:35:43;35.92;;;15.38;;
59585;SDS011;45408;52.686;7.310;2023-02-11T01:38:16;39.10;;;15.85;;
59585;SDS011;45408;52.686;7.310;2023-02-11T01:40:55;39.63;;;17.25;;
59585;SDS011;45408;52.686;7.310;2023-02-11T01:43:21;40.05;;;16.33;;
59585;SDS011;45408;52.686;7.310;2023-02-11T01:48:12;35.92;;;15.35;;
59585;SDS011;45408;52.686;7.310;2023-02-11T01:50:39;37.85;;;17.52;;
59585;SDS011;45408;52.686;7.310;2023-02-11T01:53:05;35.15;;;15.70;;
59585;SDS011;45408;52.686;7.310;2023-02-11T01:55:49;39.05;;;17.67;;
59585;SDS011;45408;52.686;7.310;2023-02-11T01:58:33;31.77;;;14.13;;
59585;SDS011;45408;52.686;7.310;2023-02-11T02:01:00;25.45;;;12.65;;
59585;SDS011;45408;52.686;7.310;2023-02-11T02:03:27;37.80;;;13.98;;
59585;SDS011;45408;52.686;7.310;2023-02-11T02:08:37;29.23;;;12.65;;
59585;SDS011;45408;52.686;7.310;2023-02-11T02:11:04;42.83;;;15.65;;
59585;SDS011;45408;52.686;7.310;2023-02-11T02:13:30;41.53;;;17.40;;
59585;SDS011;45408;52.686;7.310;2023-02-11T02:23:42;31.10;;;11.93;;
59585;SDS011;45408;52.686;7.310;2023-02-11T02:31:11;31.65;;;12.68;;
59585;SDS011;45408;52.686;7.310;2023-02-11T02:33:44;32.03;;;12.73;;
59585;SDS011;45408;52.686;7.310;2023-02-11T02:39:05;37.08;;;15.13;;
59585;SDS011;45408;52.686;7.310;2023-02-11T02:41:30;29.80;;;11.18;;
59585;SDS011;45408;52.686;7.310;2023-02-11T02:43:56;28.38;;;9.88;;
59585;SDS011;45408;52.686;7.310;2023-02-11T02:46:25;28.35;;;10.50;;
59585;SDS011;45408;52.686;7.310;2023-02-11T02:48:51;21.65;;;9.57;;
59585;SDS011;45408;52.686;7.310;2023-02-11T02:59:16;28.13;;;9.63;;
59585;SDS011;45408;52.686;7.310;2023-02-11T03:02:10;26.42;;;9.75;;
59585;SDS011;45408;52.686;7.310;2023-02-11T03:04:43;30.02;;;9.48;;
59585;SDS011;45408;52.686;7.310;2023-02-11T03:07:11;27.30;;;10.55;;
59585;SDS011;45408;52.686;7.310;2023-02-11T03:12:13;29.23;;;9.75;;
59585;SDS011;45408;52.686;7.310;2023-02-11T03:14:39;35.47;;;10.00;;
59585;SDS011;45408;52.686;7.310;2023-02-11T03:17:05;31.08;;;10.95;;
59585;SDS011;45408;52.686;7.310;2023-02-11T03:19:33;23.13;;;8.55;;
59585;SDS011;45408;52.686;7.310;2023-02-11T03:22:01;27.48;;;10.25;;
59585;SDS011;45408;52.686;7.310;2023-02-11T03:24:30;24.73;;;8.55;;
59585;SDS011;45408;52.686;7.310;2023-02-11T03:26:56;19.88;;;8.20;;
59585;SDS011;45408;52.686;7.310;2023-02-11T03:31:55;24.23;;;8.05;;
59585;SDS011;45408;52.686;7.310;2023-02-11T03:34:35;27.17;;;8.63;;
59585;SDS011;45408;52.686;7.310;2023-02-11T03:37:07;24.02;;;8.18;;
59585;SDS011;45408;52.686;7.310;2023-02-11T03:42:32;26.73;;;7.93;;
59585;SDS011;45408;52.686;7.310;2023-02-11T03:45:00;23.95;;;8.73;;
59585;SDS011;45408;52.686;7.310;2023-02-11T03:47:28;25.27;;;9.02;;
59585;SDS011;45408;52.686;7.310;2023-02-11T03:49:54;29.75;;;8.38;;
59585;SDS011;45408;52.686;7.310;2023-02-11T03:52:21;24.05;;;8.02;;
59585;SDS011;45408;52.686;7.310;2023-02-11T03:54:48;31.27;;;10.73;;
59585;SDS011;45408;52.686;7.310;2023-02-11T03:57:15;33.50;;;10.00;;
59585;SDS011;45408;52.686;7.310;2023-02-11T03:59:56;31.85;;;11.90;;
59585;SDS011;45408;52.686;7.310;2023-02-11T04:02:22;24.02;;;8.32;;
59585;SDS011;45408;52.686;7.310;2023-02-11T04:04:49;36.20;;;12.40;;
59585;SDS011;45408;52.686;7.310;2023-02-11T04:07:14;23.67;;;8.57;;
59585;SDS011;45408;52.686;7.310;2023-02-11T04:09:39;28.30;;;9.23;;
59585;SDS011;45408;52.686;7.310;2023-02-11T04:12:04;31.50;;;9.70;;
59585;SDS011;45408;52.686;7.310;2023-02-11T04:14:30;36.63;;;12.15;;
59585;SDS011;45408;52.686;7.310;2023-02-11T04:16:55;32.78;;;10.50;;
59585;SDS011;45408;52.686;7.310;2023-02-11T04:19:20;25.97;;;10.13;;
59585;SDS011;45408;52.686;7.310;2023-02-11T04:21:45;35.07;;;12.47;;
59585;SDS011;45408;52.686;7.310;2023-02-11T04:24:11;32.05;;;11.38;;
59585;SDS011;45408;52.686;7.310;2023-02-11T04:26:36;20.03;;;8.97;;
59585;SDS011;45408;52.686;7.310;2023-02-11T04:29:01;42.97;;;12.63;;
59585;SDS011;45408;52.686;7.310;2023-02-11T04:31:26;28.70;;;10.73;;
59585;SDS011;45408;52.686;7.310;2023-02-11T04:33:51;34.13;;;12.73;;
59585;SDS011;45408;52.686;7.310;2023-02-11T04:36:17;37.93;;;10.53;;
59585;SDS011;45408;52.686;7.310;2023-02-11T04:38:42;34.10;;;12.10;;
59585;SDS011;45408;52.686;7.310;2023-02-11T04:41:07;34.00;;;11.93;;
59585;SDS011;45408;52.686;7.310;2023-02-11T04:43:32;46.53;;;16.50;;
59585;SDS011;45408;52.686;7.310;2023-02-11T04:45:57;32.43;;;11.33;;
59585;SDS011;45408;52.686;7.310;2023-02-11T04:48:23;35.27;;;12.10;;
59585;SDS011;45408;52.686;7.310;2023-02-11T04:50:48;39.55;;;15.77;;
59585;SDS011;45408;52.686;7.310;2023-02-11T04:53:13;34.50;;;12.17;;
59585;SDS011;45408;52.686;7.310;2023-02-11T04:55:38;27.17;;;10.90;;
59585;SDS011;45408;52.686;7.310;2023-02-11T04:58:04;40.03;;;13.50;;
59585;SDS011;45408;52.686;7.310;2023-02-11T05:00:29;34.63;;;12.70;;
59585;SDS011;45408;52.686;7.310;2023-02-11T05:02:54;37.67;;;13.07;;
59585;SDS011;45408;52.686;7.310;2023-02-11T05:05:19;35.20;;;12.23;;
59585;SDS011;45408;52.686;7.310;2023-02-11T05:07:44;49.13;;;16.07;;
59585;SDS011;45408;52.686;7.310;2023-02-11T05:10:10;48.13;;;16.77;;
59585;SDS011;45408;52.686;7.310;2023-02-11T05:12:35;36.00;;;13.27;;
59585;SDS011;45408;52.686;7.310;2023-02-11T05:15:00;44.47;;;14.63;;
59585;SDS011;45408;52.686;7.310;2023-02-11T05:17:25;31.97;;;13.27;;
59585;SDS011;45408;52.686;7.310;2023-02-11T05:19:50;26.60;;;11.17;;
59585;SDS011;45408;52.686;7.310;2023-02-11T05:22:15;47.13;;;16.90;;
59585;SDS011;45408;52.686;7.310;2023-02-11T05:24:41;37.03;;;13.37;;
59585;SDS011;45408;52.686;7.310;2023-02-11T05:27:06;38.77;;;14.73;;
59585;SDS011;45408;52.686;7.310;2023-02-11T05:29:31;52.17;;;13.80;;
59585;SDS011;45408;52.686;7.310;2023-02-11T05:31:57;49.13;;;18.40;;
59585;SDS011;45408;52.686;7.310;2023-02-11T05:34:22;37.97;;;12.35;;
59585;SDS011;45408;52.686;7.310;2023-02-11T05:36:48;46.43;;;14.93;;
59585;SDS011;45408;52.686;7.310;2023-02-11T05:39:13;47.83;;;16.60;;
59585;SDS011;45408;52.686;7.310;2023-02-11T05:41:38;42.57;;;17.07;;
59585;SDS011;45408;52.686;7.310;2023-02-11T05:44:03;46.85;;;14.45;;
59585;SDS011;45408;52.686;7.310;2023-02-11T05:46:28;32.23;;;11.87;;
59585;SDS011;45408;52.686;7.310;2023-02-11T05:48:53;41.97;;;15.27;;
59585;SDS011;45408;52.686;7.310;2023-02-11T05:51:20;43.67;;;15.68;;
59585;SDS011;45408;52.686;7.310;2023-02-11T05:53:45;53.47;;;15.75;;
59585;SDS011;45408;52.686;7.310;2023-02-11T05:56:10;33.10;;;13.40;;
59585;SDS011;45408;52.686;7.310;2023-02-11T05:58:36;38.70;;;13.77;;
59585;SDS011;45408;52.686;7.310;2023-02-11T06:01:02;39.03;;;18.02;;
59585;SDS011;45408;52.686;7.310;2023-02-11T06:03:27;44.63;;;18.10;;
59585;SDS011;45408;52.686;7.310;2023-02-11T06:05:53;43.43;;;16.27;;
59585;SDS011;45408;52.686;7.310;2023-02-11T06:08:18;40.20;;;15.70;;
59585;SDS011;45408;52.686;7.310;2023-02-11T06:10:44;44.10;;;13.73;;
59585;SDS011;45408;52.686;7.310;2023-02-11T06:13:09;49.17;;;17.60;;
59585;SDS011;45408;52.686;7.310;2023-02-11T06:15:34;42.90;;;15.13;;
59585;SDS011;45408;52.686;7.310;2023-02-11T06:17:59;36.73;;;14.83;;
59585;SDS011;45408;52.686;7.310;2023-02-11T06:20:25;50.50;;;19.03;;
59585;SDS011;45408;52.686;7.310;2023-02-11T06:22:50;45.33;;;16.53;;
59585;SDS011;45408;52.686;7.310;2023-02-11T06:25:15;46.30;;;15.73;;
59585;SDS011;45408;52.686;7.310;2023-02-11T06:27:40;41.83;;;13.40;;
59585;SDS011;45408;52.686;7.310;2023-02-11T06:30:06;54.23;;;21.57;;
59585;SDS011;45408;52.686;7.310;2023-02-11T06:32:31;45.53;;;16.02;;
59585;SDS011;45408;52.686;7.310;2023-02-11T06:34:57;40.03;;;17.35;;
59585;SDS011;45408;52.686;7.310;2023-02-11T06:37:22;39.97;;;15.80;;
59585;SDS011;45408;52.686;7.310;2023-02-11T06:39:47;44.27;;;17.97;;
59585;SDS011;45408;52.686;7.310;2023-02-11T06:42:12;55.53;;;18.35;;
59585;SDS011;45408;52.686;7.310;2023-02-11T06:44:37;38.70;;;14.30;;
59585;SDS011;45408;52.686;7.310;2023-02-11T06:47:03;55.87;;;19.97;;
59585;SDS011;45408;52.686;7.310;2023-02-11T06:49:28;51.00;;;16.63;;
59585;SDS011;45408;52.686;7.310;2023-02-11T06:51:53;47.53;;;16.83;;
59585;SDS011;45408;52.686;7.310;2023-02-11T06:54:18;58.87;;;23.27;;
59585;SDS011;45408;52.686;7.310;2023-02-11T06:56:44;43.70;;;17.10;;
59585;SDS011;45408;52.686;7.310;2023-02-11T06:59:12;40.97;;;16.30;;
59585;SDS011;45408;52.686;7.310;2023-02-11T07:01:38;42.95;;;15.73;;
59585;SDS011;45408;52.686;7.310;2023-02-11T07:04:04;39.53;;;16.67;;
59585;SDS011;45408;52.686;7.310;2023-02-11T07:06:29;52.97;;;20.13;;
59585;SDS011;45408;52.686;7.310;2023-02-11T07:08:54;64.50;;;23.98;;
59585;SDS011;45408;52.686;7.310;2023-02-11T07:11:21;62.70;;;27.35;;
59585;SDS011;45408;52.686;7.310;2023-02-11T07:13:48;64.85;;;24.30;;
59585;SDS011;45408;52.686;7.310;2023-02-11T07:16:14;57.13;;;24.70;;
59585;SDS011;45408;52.686;7.310;2023-02-11T07:18:40;56.35;;;18.38;;
59585;SDS011;45408;52.686;7.310;2023-02-11T07:21:06;45.40;;;17.15;;
59585;SDS011;45408;52.686;7.310;2023-02-11T07:23:32;42.45;;;16.30;;
59585;SDS011;45408;52.686;7.310;2023-02-11T07:26:01;44.10;;;19.13;;
59585;SDS011;45408;52.686;7.310;2023-02-11T07:28:26;54.75;;;23.42;;
59585;SDS011;45408;52.686;7.310;2023-02-11T07:30:51;47.57;;;19.90;;
59585;SDS011;45408;52.686;7.310;2023-02-11T07:33:17;46.83;;;17.67;;
59585;SDS011;45408;52.686;7.310;2023-02-11T07:35:42;67.33;;;26.13;;
59585;SDS011;45408;52.686;7.310;2023-02-11T07:38:07;55.13;;;18.80;;
59585;SDS011;45408;52.686;7.310;2023-02-11T07:40:32;68.30;;;26.87;;
59585;SDS011;45408;52.686;7.310;2023-02-11T07:42:59;57.92;;;20.42;;
59585;SDS011;45408;52.686;7.310;2023-02-11T07:45:24;54.13;;;18.75;;
59585;SDS011;45408;52.686;7.310;2023-02-11T07:47:49;63.47;;;21.07;;
59585;SDS011;45408;52.686;7.310;2023-02-11T07:50:15;58.63;;;21.57;;
59585;SDS011;45408;52.686;7.310;2023-02-11T07:52:40;56.90;;;20.15;;
59585;SDS011;45408;52.686;7.310;2023-02-11T07:55:05;60.73;;;26.00;;
59585;SDS011;45408;52.686;7.310;2023-02-11T07:57:31;64.72;;;22.00;;
59585;SDS011;45408;52.686;7.310;2023-02-11T07:59:56;53.53;;;18.27;;
59585;SDS011;45408;52.686;7.310;2023-02-11T08:02:21;60.53;;;26.13;;
59585;SDS011;45408;52.686;7.310;2023-02-11T08:04:46;55.27;;;22.07;;
59585;SDS011;45408;52.686;7.310;2023-02-11T08:07:15;53.03;;;22.17;;
59585;SDS011;45408;52.686;7.310;2023-02-11T08:09:41;55.65;;;20.77;;
59585;SDS011;45408;52.686;7.310;2023-02-11T08:12:06;46.57;;;18.47;;
59585;SDS011;45408;52.686;7.310;2023-02-11T08:14:31;56.67;;;26.43;;
59585;SDS011;45408;52.686;7.310;2023-02-11T08:16:56;48.07;;;19.53;;
59585;SDS011;45408;52.686;7.310;2023-02-11T08:19:22;62.33;;;22.63;;
59585;SDS011;45408;52.686;7.310;2023-02-11T08:21:47;62.33;;;22.17;;
59585;SDS011;45408;52.686;7.310;2023-02-11T08:24:12;64.23;;;24.57;;
59585;SDS011;45408;52.686;7.310;2023-02-11T08:26:37;46.85;;;21.48;;
59585;SDS011;45408;52.686;7.310;2023-02-11T08:29:05;55.00;;;23.42;;
59585;SDS011;45408;52.686;7.310;2023-02-11T08:31:35;53.40;;;20.00;;
59585;SDS011;45408;52.686;7.310;2023-02-11T08:34:00;58.58;;;22.90;;
59585;SDS011;45408;52.686;7.310;2023-02-11T08:36:30;55.47;;;19.52;;
59585;SDS011;45408;52.686;7.310;2023-02-11T08:38:56;71.95;;;29.08;;
59585;SDS011;45408;52.686;7.310;2023-02-11T08:41:23;59.05;;;23.42;;
59585;SDS011;45408;52.686;7.310;2023-02-11T08:43:48;64.25;;;24.27;;
59585;SDS011;45408;52.686;7.310;2023-02-11T08:46:15;53.65;;;21.60;;
59585;SDS011;45408;52.686;7.310;2023-02-11T08:48:41;57.38;;;25.75;;
59585;SDS011;45408;52.686;7.310;2023-02-11T08:51:07;69.88;;;27.60;;
59585;SDS011;45408;52.686;7.310;2023-02-11T08:53:33;55.63;;;20.13;;
59585;SDS011;45408;52.686;7.310;2023-02-11T08:55:59;69.65;;;26.00;;
59585;SDS011;45408;52.686;7.310;2023-02-11T08:58:24;50.03;;;19.30;;
59585;SDS011;45408;52.686;7.310;2023-02-11T09:00:49;57.07;;;21.63;;
59585;SDS011;45408;52.686;7.310;2023-02-11T09:03:14;44.00;;;20.90;;
59585;SDS011;45408;52.686;7.310;2023-02-11T09:05:41;48.95;;;23.92;;
59585;SDS011;45408;52.686;7.310;2023-02-11T09:08:06;47.40;;;18.95;;
59585;SDS011;45408;52.686;7.310;2023-02-11T09:10:31;53.40;;;21.77;;
59585;SDS011;45408;52.686;7.310;2023-02-11T09:12:56;55.78;;;21.23;;
59585;SDS011;45408;52.686;7.310;2023-02-11T09:15:22;52.67;;;22.27;;
59585;SDS011;45408;52.686;7.310;2023-02-11T09:17:47;63.60;;;27.43;;
59585;SDS011;45408;52.686;7.310;2023-02-11T09:20:12;62.33;;;25.47;;
59585;SDS011;45408;52.686;7.310;2023-02-11T09:22:37;57.47;;;21.73;;
59585;SDS011;45408;52.686;7.310;2023-02-11T09:25:02;59.93;;;24.10;;
59585;SDS011;45408;52.686;7.310;2023-02-11T09:27:28;61.38;;;24.95;;
59585;SDS011;45408;52.686;7.310;2023-02-11T09:29:53;48.83;;;19.93;;
59585;SDS011;45408;52.686;7.310;2023-02-11T09:32:18;57.80;;;22.43;;
59585;SDS011;45408;52.686;7.310;2023-02-11T09:34:43;56.87;;;22.77;;
59585;SDS011;45408;52.686;7.310;2023-02-11T09:37:08;58.47;;;24.10;;
59585;SDS011;45408;52.686;7.310;2023-02-11T09:39:33;60.50;;;27.33;;
59585;SDS011;45408;52.686;7.310;2023-02-11T09:44:43;64.93;;;28.10;;
59585;SDS011;45408;52.686;7.310;2023-02-11T09:49:41;52.83;;;26.30;;
59585;SDS011;45408;52.686;7.310;2023-02-11T09:52:17;63.35;;;23.20;;
59585;SDS011;45408;52.686;7.310;2023-02-11T09:57:19;56.22;;;24.67;;
59585;SDS011;45408;52.686;7.310;2023-02-11T09:59:44;72.43;;;33.85;;
59585;SDS011;45408;52.686;7.310;2023-02-11T10:02:16;67.55;;;29.98;;
59585;SDS011;45408;52.686;7.310;2023-02-11T10:04:54;54.70;;;22.35;;
59585;SDS011;45408;52.686;7.310;2023-02-11T10:12:41;45.85;;;20.48;;
59585;SDS011;45408;52.686;7.310;2023-02-11T10:23:01;46.67;;;20.95;;
59585;SDS011;45408;52.686;7.310;2023-02-11T10:25:36;57.22;;;21.63;;
59585;SDS011;45408;52.686;7.310;2023-02-11T10:28:09;53.25;;;26.90;;
59585;SDS011;45408;52.686;7.310;2023-02-11T10:30:36;44.95;;;18.77;;
59585;SDS011;45408;52.686;7.310;2023-02-11T10:33:03;46.10;;;20.70;;
59585;SDS011;45408;52.686;7.310;2023-02-11T10:35:34;59.58;;;24.27;;
59585;SDS011;45408;52.686;7.310;2023-02-11T10:37:59;46.63;;;20.33;;
59585;SDS011;45408;52.686;7.310;2023-02-11T10:40:26;50.38;;;21.67;;
59585;SDS011;45408;52.686;7.310;2023-02-11T10:42:52;46.30;;;19.73;;
59585;SDS011;45408;52.686;7.310;2023-02-11T10:45:21;50.97;;;21.30;;
59585;SDS011;45408;52.686;7.310;2023-02-11T10:47:47;38.97;;;17.98;;
59585;SDS011;45408;52.686;7.310;2023-02-11T10:50:16;41.67;;;19.15;;
59585;SDS011;45408;52.686;7.310;2023-02-11T10:52:42;59.63;;;24.45;;
59585;SDS011;45408;52.686;7.310;2023-02-11T10:57:55;55.55;;;23.52;;
59585;SDS011;45408;52.686;7.310;2023-02-11T11:00:25;38.33;;;17.25;;
59585;SDS011;45408;52.686;7.310;2023-02-11T11:03:00;51.38;;;20.85;;
59585;SDS011;45408;52.686;7.310;2023-02-11T11:05:33;47.13;;;20.80;;
59585;SDS011;45408;52.686;7.310;2023-02-11T11:07:59;42.67;;;18.90;;
59585;SDS011;45408;52.686;7.310;2023-02-11T11:13:00;38.40;;;17.67;;
59585;SDS011;45408;52.686;7.310;2023-02-11T11:15:26;44.73;;;17.97;;
59585;SDS011;45408;52.686;7.310;2023-02-11T11:18:13;35.63;;;17.35;;
59585;SDS011;45408;52.686;7.310;2023-02-11T11:20:37;38.90;;;17.88;;
59585;SDS011;45408;52.686;7.310;2023-02-11T11:23:18;27.23;;;15.57;;
59585;SDS011;45408;52.686;7.310;2023-02-11T11:25:57;40.25;;;19.13;;
59585;SDS011;45408;52.686;7.310;2023-02-11T11:28:24;45.77;;;19.80;;
59585;SDS011;45408;52.686;7.310;2023-02-11T11:30:50;33.28;;;16.42;;
59585;SDS011;45408;52.686;7.310;2023-02-11T11:33:21;31.13;;;16.85;;
59585;SDS011;45408;52.686;7.310;2023-02-11T11:36:34;37.70;;;20.30;;
59585;SDS011;45408;52.686;7.310;2023-02-11T11:38:34;40.85;;;17.67;;
59585;SDS011;45408;52.686;7.310;2023-02-11T11:41:18;30.60;;;14.40;;
59585;SDS011;45408;52.686;7.310;2023-02-11T11:48:53;36.50;;;14.57;;
59585;SDS011;45408;52.686;7.310;2023-02-11T11:51:20;39.45;;;17.50;;
59585;SDS011;45408;52.686;7.310;2023-02-11T11:53:52;29.73;;;13.43;;
59585;SDS011;45408;52.686;7.310;2023-02-11T11:56:20;32.78;;;16.00;;
59585;SDS011;45408;52.686;7.310;2023-02-11T11:58:46;25.70;;;12.25;;
59585;SDS011;45408;52.686;7.310;2023-02-11T12:08:54;30.65;;;13.05;;
59585;SDS011;45408;52.686;7.310;2023-02-11T12:11:50;27.42;;;13.20;;
59585;SDS011;45408;52.686;7.310;2023-02-11T12:16:35;28.40;;;11.15;;
59585;SDS011;45408;52.686;7.310;2023-02-11T12:24:03;26.40;;;12.10;;
59585;SDS011;45408;52.686;7.310;2023-02-11T12:26:32;27.35;;;11.25;;
59585;SDS011;45408;52.686;7.310;2023-02-11T12:29:02;27.17;;;11.68;;
59585;SDS011;45408;52.686;7.310;2023-02-11T12:31:39;23.60;;;10.57;;
59585;SDS011;45408;52.686;7.310;2023-02-11T12:44:50;21.00;;;9.65;;
59585;SDS011;45408;52.686;7.310;2023-02-11T12:47:24;24.40;;;9.60;;
59585;SDS011;45408;52.686;7.310;2023-02-11T12:55:07;23.20;;;10.63;;
59585;SDS011;45408;52.686;7.310;2023-02-11T12:57:35;17.58;;;8.52;;
59585;SDS011;45408;52.686;7.310;2023-02-11T13:00:16;21.10;;;10.15;;
59585;SDS011;45408;52.686;7.310;2023-02-11T13:05:54;22.40;;;10.57;;
59585;SDS011;45408;52.686;7.310;2023-02-11T13:08:15;20.33;;;9.00;;
59585;SDS011;45408;52.686;7.310;2023-02-11T13:10:42;18.60;;;9.00;;
59585;SDS011;45408;52.686;7.310;2023-02-11T13:13:13;23.60;;;9.75;;
59585;SDS011;45408;52.686;7.310;2023-02-11T13:15:43;19.00;;;9.77;;
59585;SDS011;45408;52.686;7.310;2023-02-11T13:21:07;27.83;;;11.07;;
59585;SDS011;45408;52.686;7.310;2023-02-11T13:28:37;21.13;;;9.13;;
59585;SDS011;45408;52.686;7.310;2023-02-11T13:31:04;19.98;;;8.40;;
59585;SDS011;45408;52.686;7.310;2023-02-11T13:33:32;22.08;;;9.20;;
59585;SDS011;45408;52.686;7.310;2023-02-11T13:38:24;20.80;;;9.37;;
59585;SDS011;45408;52.686;7.310;2023-02-11T13:41:03;22.60;;;10.82;;
59585;SDS011;45408;52.686;7.310;2023-02-11T13:43:29;18.55;;;8.23;;
59585;SDS011;45408;52.686;7.310;2023-02-11T13:45:59;20.33;;;8.02;;
59585;SDS011;45408;52.686;7.310;2023-02-11T13:48:28;21.35;;;9.98;;
59585;SDS011;45408;52.686;7.310;2023-02-11T13:51:01;20.30;;;8.05;;
59585;SDS011;45408;52.686;7.310;2023-02-11T13:53:26;30.27;;;9.82;;
59585;SDS011;45408;52.686;7.310;2023-02-11T13:56:38;17.73;;;7.50;;
59585;SDS011;45408;52.686;7.310;2023-02-11T13:58:48;21.85;;;9.23;;
59585;SDS011;45408;52.686;7.310;2023-02-11T14:07:23;24.35;;;9.45;;
59585;SDS011;45408;52.686;7.310;2023-02-11T14:13:37;21.25;;;8.63;;
59585;SDS011;45408;52.686;7.310;2023-02-11T14:15:38;25.60;;;8.68;;
59585;SDS011;45408;52.686;7.310;2023-02-11T14:18:35;20.40;;;8.07;;
59585;SDS011;45408;52.686;7.310;2023-02-11T14:20:48;22.60;;;8.48;;
59585;SDS011;45408;52.686;7.310;2023-02-11T14:23:21;18.98;;;7.80;;
59585;SDS011;45408;52.686;7.310;2023-02-11T14:25:51;20.20;;;8.85;;
59585;SDS011;45408;52.686;7.310;2023-02-11T14:28:23;14.45;;;7.78;;
59585;SDS011;45408;52.686;7.310;2023-02-11T14:38:33;17.30;;;8.50;;
59585;SDS011;45408;52.686;7.310;2023-02-11T14:43:34;26.60;;;8.88;;
59585;SDS011;45408;52.686;7.310;2023-02-11T14:46:01;19.38;;;7.20;;
59585;SDS011;45408;52.686;7.310;2023-02-11T14:48:30;16.25;;;7.13;;
59585;SDS011;45408;52.686;7.310;2023-02-11T14:51:09;22.55;;;8.38;;
59585;SDS011;45408;52.686;7.310;2023-02-11T14:53:36;16.35;;;6.57;;
59585;SDS011;45408;52.686;7.310;2023-02-11T14:56:09;22.33;;;7.00;;
59585;SDS011;45408;52.686;7.310;2023-02-11T14:58:44;18.42;;;6.95;;
59585;SDS011;45408;52.686;7.310;2023-02-11T15:01:21;21.33;;;8.88;;
59585;SDS011;45408;52.686;7.310;2023-02-11T15:03:48;21.85;;;8.38;;
59585;SDS011;45408;52.686;7.310;2023-02-11T15:06:20;17.73;;;7.53;;
59585;SDS011;45408;52.686;7.310;2023-02-11T15:08:47;25.52;;;7.82;;
59585;SDS011;45408;52.686;7.310;2023-02-11T15:11:14;21.50;;;9.20;;
59585;SDS011;45408;52.686;7.310;2023-02-11T15:13:40;16.98;;;7.63;;
59585;SDS011;45408;52.686;7.310;2023-02-11T15:16:11;16.95;;;7.05;;
59585;SDS011;45408;52.686;7.310;2023-02-11T15:18:39;15.77;;;7.80;;
59585;SDS011;45408;52.686;7.310;2023-02-11T15:21:06;17.55;;;8.02;;
59585;SDS011;45408;52.686;7.310;2023-02-11T15:23:32;19.50;;;7.90;;
59585;SDS011;45408;52.686;7.310;2023-02-11T15:25:57;16.83;;;6.18;;
59585;SDS011;45408;52.686;7.310;2023-02-11T15:28:28;13.38;;;6.38;;
59585;SDS011;45408;52.686;7.310;2023-02-11T15:31:02;20.75;;;6.53;;
59585;SDS011;45408;52.686;7.310;2023-02-11T15:33:27;29.52;;;14.25;;
59585;SDS011;45408;52.686;7.310;2023-02-11T15:35:56;21.58;;;7.50;;
59585;SDS011;45408;52.686;7.310;2023-02-11T15:38:21;13.82;;;5.80;;
59585;SDS011;45408;52.686;7.310;2023-02-11T15:40:52;11.98;;;5.43;;
59585;SDS011;45408;52.686;7.310;2023-02-11T15:43:17;13.15;;;5.50;;
59585;SDS011;45408;52.686;7.310;2023-02-11T15:48:23;16.10;;;5.25;;
59585;SDS011;45408;52.686;7.310;2023-02-11T15:50:54;13.10;;;5.05;;
59585;SDS011;45408;52.686;7.310;2023-02-11T15:53:26;15.88;;;5.68;;
59585;SDS011;45408;52.686;7.310;2023-02-11T15:55:55;21.10;;;6.68;;
59585;SDS011;45408;52.686;7.310;2023-02-11T15:58:23;13.10;;;5.82;;
59585;SDS011;45408;52.686;7.310;2023-02-11T16:00:50;15.32;;;5.65;;
59585;SDS011;45408;52.686;7.310;2023-02-11T16:03:19;13.73;;;5.18;;
59585;SDS011;45408;52.686;7.310;2023-02-11T16:05:45;16.92;;;6.38;;
59585;SDS011;45408;52.686;7.310;2023-02-11T16:10:52;12.68;;;5.75;;
59585;SDS011;45408;52.686;7.310;2023-02-11T16:13:18;15.63;;;6.22;;
59585;SDS011;45408;52.686;7.310;2023-02-11T16:15:45;13.48;;;5.10;;
59585;SDS011;45408;52.686;7.310;2023-02-11T16:18:54;17.52;;;5.72;;
59585;SDS011;45408;52.686;7.310;2023-02-11T16:21:00;14.57;;;6.03;;
59585;SDS011;45408;52.686;7.310;2023-02-11T16:23:27;10.45;;;4.90;;
59585;SDS011;45408;52.686;7.310;2023-02-11T16:25:57;15.43;;;5.85;;
59585;SDS011;45408;52.686;7.310;2023-02-11T16:28:23;16.65;;;6.28;;
59585;SDS011;45408;52.686;7.310;2023-02-11T16:30:50;15.65;;;4.72;;
59585;SDS011;45408;52.686;7.310;2023-02-11T16:33:16;15.85;;;4.70;;
59585;SDS011;45408;52.686;7.310;2023-02-11T16:35:41;14.65;;;5.75;;
59585;SDS011;45408;52.686;7.310;2023-02-11T16:38:08;14.00;;;4.65;;
59585;SDS011;45408;52.686;7.310;2023-02-11T16:40:34;17.67;;;4.50;;
59585;SDS011;45408;52.686;7.310;2023-02-11T16:42:59;14.60;;;4.15;;
59585;SDS011;45408;52.686;7.310;2023-02-11T16:45:24;11.17;;;4.63;;